Observations for ODIHAM RAF, United Kingdom (EGVO)

EGVO 140750Z 25006KT 9999 FEW012 BKN045 18/14 Q1016 BLU 
EGVO 140650Z 24006KT 9999 BKN040 15/13 Q1016 BLU
EGVO 140550Z 25004KT 9999 BKN040 15/12 Q1016 BLU
EGVO 140450Z 25005KT 9999 BKN043 14/12 Q1015 BLU
EGVO 140350Z 28005KT 9999 FEW040 13/11 Q1014 BLU
EGVO 140250Z 27005KT 9999 FEW025 14/12 Q1014 BLU
EGVO 140150Z 29006KT 9999 FEW024 15/12 Q1014 BLU
EGVO 140050Z AUTO 29008KT 9999 SCT024/// 16/12 Q1013
EGVO 132350Z AUTO 29008KT 9999 FEW023/// 16/13 Q1013
EGVO 132250Z 29005KT 9999 FEW025 17/15 Q1012 BLU
EGVO 132150Z 29005KT CAVOK 17/15 Q1012 BLU  
EGVO 132050Z 29006KT 9999 FEW040 18/15 Q1011 BLU NOSIG  
EGVO 131950Z 30007KT 9999 FEW038 19/15 Q1011 BLU NOSIG  
EGVO 131850Z 31011KT 9999 FEW040 20/14 Q1010 BLU NOSIG  
EGVO 131750Z 31009KT 9999 FEW040 SCT080 22/12 Q1009 BLU NOSIG   
EGVO 131650Z 28011KT 9999 FEW041 SCT065 23/12 Q1008 BLU NOSIG   
EGVO 131550Z 28009KT 9999 FEW040 SCT070 22/12 Q1008 BLU NOSIG   
EGVO 131450Z 31007KT 9999 FEW040 BKN060 21/12 Q1008 BLU NOSIG   
EGVO 131350Z 27012KT 9999 FEW034 BKN060 21/12 Q1008 BLU NOSIG   
EGVO 131250Z 27012KT 9999 SCT028 BKN050 21/13 Q1008 BLU NOSIG   
EGVO 131150Z 27011KT 9999 FEW025 SCT050 22/14 Q1007 BLU NOSIG   
EGVO 131050Z 31008KT 9999 SCT018 BKN050 20/15 Q1007 WHT BECMG SCT025 BLU
EGVO 130950Z 31008KT 9999 FEW015 SCT018 BKN060 19/15 Q1007 WHT  
EGVO 130850Z 29007KT 9999 SCT008 BKN026 17/15 Q1007 GRN 
EGVO 130750Z 28007KT 9999 BKN007 16/15 Q1007 GRN